Time;durP1;ratioP1;P1;durP2;ratioP2;P2;SDS_P1;SDS_P2;PMS_P1;PMS_P2;Temp;Humidity;BMP_temperature;BMP_pressure;BME280_temperature;BME280_humidity;BME280_pressure;Samples;Min_cycle;Max_cycle;Signal;HPM_P1;HPM_P2
2023/04/26 00:02:16;;;;;;;19.70;8.10;;;;;;;6.33;56.38;99910.15;110934;1258;22608;-78
2023/04/26 00:04:57;;;;;;;16.70;8.70;;;;;;;6.35;56.46;99911.31;110818;1258;21989;-79
2023/04/26 00:07:30;;;;;;;16.00;7.60;;;;;;;6.33;56.35;99909.80;111024;1258;21972;-79
2023/04/26 00:09:59;;;;;;;17.60;7.90;;;;;;;6.33;56.44;99908.08;111178;1258;21918;-80
2023/04/26 00:12:28;;;;;;;16.80;8.70;;;;;;;6.34;56.42;99909.61;110658;1264;21947;-80
2023/04/26 00:14:58;;;;;;;14.70;8.10;;;;;;;6.35;56.52;99911.80;110247;1264;23677;-80
2023/04/26 00:17:27;;;;;;;15.00;7.20;;;;;;;6.39;56.60;99913.97;110430;1264;21952;-78
2023/04/26 00:19:56;;;;;;;23.60;9.90;;;;;;;6.41;56.82;99912.85;110238;1264;22314;-78
2023/04/26 00:22:26;;;;;;;17.80;8.90;;;;;;;6.46;56.77;99912.20;110664;1265;21992;-80
2023/04/26 00:24:56;;;;;;;16.10;7.90;;;;;;;6.47;56.82;99908.02;110511;1265;22843;-79
2023/04/26 00:27:25;;;;;;;15.50;8.00;;;;;;;6.48;56.92;99909.05;110478;1265;22385;-79
2023/04/26 00:29:54;;;;;;;15.00;7.70;;;;;;;6.48;56.97;99910.08;110402;1258;21969;-80
2023/04/26 00:32:23;;;;;;;19.90;8.60;;;;;;;6.48;56.91;99906.61;111220;1258;23648;-81
2023/04/26 00:34:52;;;;;;;13.70;8.80;;;;;;;6.48;56.89;99909.03;110761;1258;22061;-81
2023/04/26 00:37:22;;;;;;;14.80;7.10;;;;;;;6.49;56.92;99912.30;111173;1258;23583;-82
2023/04/26 00:39:51;;;;;;;13.40;7.50;;;;;;;6.52;57.12;99912.58;110743;1258;22120;-80
2023/04/26 00:42:20;;;;;;;16.60;7.30;;;;;;;6.53;57.00;99913.58;111057;1257;22152;-79
2023/04/26 00:44:54;;;;;;;15.90;8.10;;;;;;;6.54;57.07;99913.53;111066;1257;21968;-82
2023/04/26 00:47:29;;;;;;;15.90;8.00;;;;;;;6.53;56.99;99914.23;111126;1258;21975;-80
2023/04/26 00:50:03;;;;;;;15.40;7.60;;;;;;;6.52;57.14;99913.44;111208;1258;24280;-82
2023/04/26 00:52:32;;;;;;;19.20;7.60;;;;;;;6.50;57.29;99918.30;111007;1258;23114;-81
2023/04/26 00:55:02;;;;;;;15.20;7.20;;;;;;;6.49;57.20;99921.64;111132;1258;22039;-80
2023/04/26 00:57:31;;;;;;;17.80;8.30;;;;;;;6.46;57.28;99921.20;110999;1258;21989;-81
2023/04/26 01:00:00;;;;;;;20.80;8.40;;;;;;;6.41;57.43;99924.27;110887;1258;23076;-81
2023/04/26 01:02:30;;;;;;;14.60;7.60;;;;;;;6.38;57.38;99924.19;111116;1258;24283;-81
2023/04/26 01:04:59;;;;;;;16.10;8.40;;;;;;;6.33;57.43;99925.34;111192;1258;21957;-79
2023/04/26 01:07:29;;;;;;;15.30;8.30;;;;;;;6.31;57.55;99925.08;110988;1258;23121;-81
2023/04/26 01:09:59;;;;;;;18.50;8.00;;;;;;;6.29;57.56;99926.33;111068;1258;21955;-80
2023/04/26 01:12:31;;;;;;;15.60;7.80;;;;;;;6.26;57.62;99928.45;111161;1258;21970;-79
2023/04/26 01:15:00;;;;;;;15.60;7.50;;;;;;;6.23;57.74;99929.75;111039;1253;21982;-78
2023/04/26 01:17:30;;;;;;;14.50;7.90;;;;;;;6.18;57.98;99928.69;110935;1258;21968;-79
2023/04/26 01:19:59;;;;;;;12.50;7.30;;;;;;;6.14;58.01;99927.59;111135;1257;21960;-79
2023/04/26 01:22:33;;;;;;;16.90;8.80;;;;;;;6.07;58.09;99926.89;111028;1258;22285;-81
2023/04/26 01:25:06;;;;;;;13.70;7.00;;;;;;;6.02;58.10;99925.82;111221;1257;21983;-79
2023/04/26 01:27:35;;;;;;;15.40;6.70;;;;;;;5.95;58.11;99926.86;111066;1258;22384;-79
2023/04/26 01:30:06;;;;;;;16.00;7.40;;;;;;;5.89;58.20;99931.48;111163;1258;21963;-79
2023/04/26 01:32:35;;;;;;;12.50;6.60;;;;;;;5.84;58.27;99930.40;111213;1258;22040;-79
2023/04/26 01:35:06;;;;;;;15.40;7.60;;;;;;;5.80;58.41;99934.80;111302;1257;21980;-80
2023/04/26 01:37:35;;;;;;;13.20;6.90;;;;;;;5.77;58.47;99937.46;110701;1264;23580;-82
2023/04/26 01:40:07;;;;;;;16.20;8.30;;;;;;;5.72;58.58;99936.90;110694;1265;21979;-82
2023/04/26 01:42:39;;;;;;;14.00;7.00;;;;;;;5.69;58.65;99933.70;110751;1264;24303;-82
2023/04/26 01:45:09;;;;;;;16.10;6.90;;;;;;;5.65;58.77;99936.89;110522;1264;21988;-81
2023/04/26 01:47:57;;;;;;;11.30;5.80;;;;;;;5.61;58.89;99935.46;110757;1265;23821;-80
2023/04/26 01:50:26;;;;;;;15.00;6.80;;;;;;;5.60;58.84;99940.83;110663;1264;22137;-81
2023/04/26 01:52:55;;;;;;;17.10;6.60;;;;;;;5.58;59.01;99944.51;110547;1264;23716;-81
2023/04/26 01:55:25;;;;;;;12.00;6.00;;;;;;;5.55;59.15;99947.49;110555;1258;23753;-81
2023/04/26 01:57:54;;;;;;;13.70;6.10;;;;;;;5.51;59.00;99950.19;111037;1258;24298;-79
2023/04/26 02:00:23;;;;;;;13.80;6.30;;;;;;;5.46;59.23;99951.16;111152;1258;21961;-82
2023/04/26 02:02:56;;;;;;;11.80;6.30;;;;;;;5.41;59.27;99949.73;111063;1258;23580;-82
2023/04/26 02:05:25;;;;;;;12.70;6.40;;;;;;;5.35;59.13;99946.41;111065;1258;21962;-82
2023/04/26 02:07:55;;;;;;;17.80;5.60;;;;;;;5.30;59.26;99950.14;111183;1258;22790;-82
2023/04/26 02:10:24;;;;;;;8.50;5.40;;;;;;;5.27;59.30;99953.48;111089;1258;23622;-81
2023/04/26 02:12:53;;;;;;;12.40;5.70;;;;;;;5.23;59.22;99953.56;110857;1252;23766;-81
2023/04/26 02:15:23;;;;;;;15.50;6.40;;;;;;;5.21;59.44;99955.16;110924;1258;21982;-81
2023/04/26 02:17:54;;;;;;;11.80;5.40;;;;;;;5.20;59.73;99952.77;111122;1259;22819;-81
2023/04/26 02:20:23;;;;;;;12.50;5.90;;;;;;;5.20;59.76;99955.02;110962;1259;22032;-82
2023/04/26 02:22:53;;;;;;;16.70;7.40;;;;;;;5.19;59.66;99954.17;110996;1259;23083;-82
2023/04/26 02:25:23;;;;;;;10.40;5.20;;;;;;;5.16;59.65;99952.53;111059;1259;22100;-81
2023/04/26 02:27:54;;;;;;;14.70;5.70;;;;;;;5.11;59.68;99951.77;111116;1259;21961;-81
2023/04/26 02:30:23;;;;;;;17.10;5.80;;;;;;;5.05;59.74;99952.58;111109;1259;22065;-81
2023/04/26 02:32:54;;;;;;;13.30;7.20;;;;;;;5.01;59.78;99951.80;110896;1259;21973;-81
2023/04/26 02:35:24;;;;;;;16.40;6.60;;;;;;;4.97;59.97;99954.48;110893;1259;22145;-81
2023/04/26 02:37:53;;;;;;;22.20;6.10;;;;;;;4.94;59.95;99950.41;110987;1259;22727;-80
2023/04/26 02:40:23;;;;;;;12.80;5.60;;;;;;;4.92;60.00;99950.10;111006;1259;21962;-81
2023/04/26 02:42:52;;;;;;;14.00;6.70;;;;;;;4.91;60.03;99951.16;111050;1259;22037;-81
2023/04/26 02:45:21;;;;;;;11.60;4.80;;;;;;;4.90;60.17;99952.91;111011;1259;21971;-79
2023/04/26 02:47:50;;;;;;;10.60;5.00;;;;;;;4.88;60.11;99954.14;111012;1259;22018;-81
2023/04/26 02:50:20;;;;;;;12.70;5.20;;;;;;;4.88;60.27;99952.93;110885;1259;22095;-80
2023/04/26 02:52:49;;;;;;;8.80;4.60;;;;;;;4.86;60.06;99954.02;111073;1259;21969;-82
2023/04/26 02:55:19;;;;;;;11.20;4.80;;;;;;;4.82;60.09;99954.60;111000;1259;22666;-80
2023/04/26 02:57:48;;;;;;;13.40;5.30;;;;;;;4.80;60.16;99953.12;110607;1259;23797;-81
2023/04/26 03:00:22;;;;;;;10.30;4.60;;;;;;;4.75;60.16;99950.63;111227;1258;21918;-81
2023/04/26 03:02:52;;;;;;;11.50;4.40;;;;;;;4.71;60.10;99953.81;111476;1258;21975;-82
2023/04/26 03:05:22;;;;;;;7.60;4.40;;;;;;;4.67;60.12;99958.53;111072;1258;22006;-82
2023/04/26 03:07:51;;;;;;;9.40;4.90;;;;;;;4.65;60.19;99957.02;111007;1248;23800;-81
2023/04/26 03:10:20;;;;;;;11.50;5.40;;;;;;;4.61;60.17;99958.31;110968;1258;22749;-81
2023/04/26 03:12:50;;;;;;;10.50;4.30;;;;;;;4.59;60.39;99963.17;111152;1258;21983;-82
2023/04/26 03:15:19;;;;;;;9.20;4.40;;;;;;;4.56;60.30;99966.00;111082;1258;22789;-81
2023/04/26 03:17:48;;;;;;;11.20;5.20;;;;;;;4.54;60.47;99970.17;110910;1258;21985;-81
2023/04/26 03:20:19;;;;;;;11.50;4.60;;;;;;;4.53;60.60;99973.28;111127;1258;21978;-81
2023/04/26 03:22:49;;;;;;;9.60;4.70;;;;;;;4.52;60.51;99971.92;111106;1255;23088;-81
2023/04/26 03:25:18;;;;;;;11.00;4.60;;;;;;;4.48;60.42;99970.27;111007;1258;22515;-82
2023/04/26 03:27:48;;;;;;;8.50;4.50;;;;;;;4.47;60.59;99974.08;111215;1258;22390;-80
2023/04/26 03:30:17;;;;;;;10.80;4.50;;;;;;;4.48;60.65;99977.17;111212;1258;21962;-81
2023/04/26 03:32:47;;;;;;;14.20;5.00;;;;;;;4.48;60.76;99980.27;111340;1258;21963;-81
2023/04/26 03:35:16;;;;;;;58.60;52.30;;;;;;;4.45;60.59;99979.98;110479;1264;21969;-80
2023/04/26 03:37:45;;;;;;;18.60;9.20;;;;;;;4.42;60.74;99981.42;110389;1265;22010;-82
2023/04/26 03:40:15;;;;;;;24.70;16.00;;;;;;;4.41;60.66;99987.13;110680;1265;23091;-82
2023/04/26 03:42:46;;;;;;;14.00;5.70;;;;;;;4.41;60.73;99988.85;110481;1264;21978;-80
2023/04/26 03:45:16;;;;;;;12.70;5.20;;;;;;;4.37;60.78;99983.73;110680;1265;21984;-81
2023/04/26 03:47:46;;;;;;;13.10;5.00;;;;;;;4.41;60.83;99992.64;109633;1269;21972;-81
2023/04/26 03:50:16;;;;;;;12.90;5.70;;;;;;;4.43;60.79;99995.19;109701;1270;21979;-82
2023/04/26 03:52:47;;;;;;;9.30;5.00;;;;;;;4.44;60.92;99999.13;109858;1265;23140;-81
2023/04/26 03:55:18;;;;;;;15.60;5.60;;;;;;;4.47;60.96;100002.35;110136;1265;22198;-82
2023/04/26 03:57:49;;;;;;;14.70;5.60;;;;;;;4.48;61.09;100003.89;110317;1265;21971;-81
2023/04/26 04:00:19;;;;;;;9.00;4.60;;;;;;;4.50;61.03;100005.23;110184;1267;23728;-80
2023/04/26 04:02:49;;;;;;;11.90;6.00;;;;;;;4.55;61.27;100006.50;109972;1271;23786;-79
2023/04/26 04:05:24;;;;;;;14.10;5.40;;;;;;;4.65;61.48;100009.24;109852;1263;22038;-81
2023/04/26 04:07:55;;;;;;;13.30;5.70;;;;;;;4.81;61.81;100013.08;110005;1269;23057;-81
2023/04/26 04:10:24;;;;;;;10.20;5.20;;;;;;;4.98;62.02;100016.38;109954;1268;21993;-79
2023/04/26 04:12:55;;;;;;;15.10;6.10;;;;;;;5.13;62.08;100015.38;109496;1269;21981;-81
2023/04/26 04:15:25;;;;;;;19.70;6.00;;;;;;;5.30;61.84;100013.30;109519;1269;22027;-79
2023/04/26 04:17:55;;;;;;;11.70;6.00;;;;;;;5.41;61.56;100017.52;109731;1269;21996;-79
2023/04/26 04:20:25;;;;;;;12.00;5.10;;;;;;;5.52;61.03;100016.95;109722;1264;22013;-80
2023/04/26 04:22:57;;;;;;;10.60;5.20;;;;;;;5.61;60.87;100017.77;110587;1255;21999;-82
2023/04/26 04:25:26;;;;;;;15.60;5.60;;;;;;;5.73;60.83;100021.64;110704;1258;21990;-80
2023/04/26 04:31:55;;;;;;;14.00;5.00;;;;;;;5.99;60.22;100024.19;111181;1258;22302;-80
2023/04/26 04:34:25;;;;;;;9.50;4.70;;;;;;;6.13;59.85;100028.52;110962;1258;22003;-80
2023/04/26 04:36:55;;;;;;;12.60;4.90;;;;;;;6.26;59.59;100031.81;111015;1258;23620;-80
2023/04/26 04:39:24;;;;;;;11.50;4.40;;;;;;;6.36;59.26;100033.13;111206;1258;23680;-81
2023/04/26 04:41:53;;;;;;;12.00;4.50;;;;;;;6.43;59.04;100034.34;111066;1258;23792;-81
2023/04/26 04:44:25;;;;;;;13.80;4.80;;;;;;;6.48;58.50;100037.65;111219;1258;23690;-81
2023/04/26 04:46:57;;;;;;;12.40;4.60;;;;;;;6.52;58.34;100038.92;111268;1258;21984;-80
2023/04/26 04:49:26;;;;;;;11.60;4.60;;;;;;;6.59;58.15;100043.23;110583;1265;22995;-82
2023/04/26 04:51:56;;;;;;;14.30;5.00;;;;;;;6.68;57.99;100042.83;110750;1265;22325;-80
2023/04/26 04:54:26;;;;;;;10.90;5.30;;;;;;;6.81;57.98;100049.41;110378;1265;22563;-81
2023/04/26 04:56:57;;;;;;;11.30;5.10;;;;;;;6.88;57.68;100049.73;110355;1265;24268;-79
2023/04/26 04:59:27;;;;;;;18.40;5.40;;;;;;;6.98;57.38;100053.92;110341;1265;22001;-80
2023/04/26 05:01:57;;;;;;;14.00;6.30;;;;;;;7.09;57.44;100054.50;110537;1265;22016;-80
2023/04/26 05:04:27;;;;;;;16.60;5.40;;;;;;;7.18;56.77;100059.27;110530;1265;22453;-79
2023/04/26 05:06:57;;;;;;;10.70;5.00;;;;;;;7.24;56.59;100059.27;110577;1258;22970;-80
2023/04/26 05:09:26;;;;;;;14.50;3.70;;;;;;;7.25;56.13;100058.40;111010;1258;23615;-80
2023/04/26 05:11:56;;;;;;;11.30;4.00;;;;;;;7.24;56.09;100060.66;110695;1258;21966;-80
2023/04/26 05:14:26;;;;;;;11.60;3.90;;;;;;;7.30;56.22;100062.23;111223;1246;22049;-80
2023/04/26 05:16:56;;;;;;;10.00;3.00;;;;;;;7.32;55.74;100062.16;111041;1258;22463;-78
2023/04/26 05:19:26;;;;;;;11.50;4.60;;;;;;;7.31;55.37;100059.42;110753;1265;21969;-79
2023/04/26 05:21:58;;;;;;;9.30;3.30;;;;;;;7.42;55.79;100061.85;110241;1265;21976;-79
2023/04/26 05:24:30;;;;;;;12.20;3.70;;;;;;;7.54;55.58;100063.08;110464;1265;23583;-79
2023/04/26 05:26:59;;;;;;;;;;;;;;;7.61;55.30;100068.77;110510;1264;23655;-81
2023/04/26 05:29:49;;;;;;;11.10;3.90;;;;;;;7.63;55.41;100070.95;110246;1264;21968;-81
2023/04/26 05:32:56;;;;;;;13.30;3.60;;;;;;;7.77;55.09;100071.90;110438;1265;21976;-79
2023/04/26 05:35:37;;;;;;;14.00;4.00;;;;;;;7.90;54.81;100078.60;110580;1265;23019;-79
2023/04/26 05:38:06;;;;;;;9.20;3.60;;;;;;;8.02;54.55;100072.02;110633;1259;23001;-80
2023/04/26 05:40:36;;;;;;;16.90;3.90;;;;;;;8.18;54.58;100078.61;110787;1258;21970;-80
2023/04/26 05:43:07;;;;;;;8.50;3.50;;;;;;;8.34;54.26;100083.10;110913;1259;22157;-79
2023/04/26 05:45:39;;;;;;;9.90;3.90;;;;;;;8.51;54.06;100088.27;110623;1258;21974;-78
2023/04/26 05:48:08;;;;;;;7.80;2.90;;;;;;;8.78;54.18;100081.84;110868;1258;21999;-76
2023/04/26 05:50:37;;;;;;;10.60;3.80;;;;;;;9.10;53.65;100077.58;110891;1258;22560;-77
2023/04/26 05:53:08;;;;;;;9.10;3.10;;;;;;;9.37;53.20;100080.25;110765;1258;22008;-79
2023/04/26 05:55:37;;;;;;;9.00;3.00;;;;;;;9.67;52.56;100082.23;110766;1258;21964;-79
2023/04/26 05:58:08;;;;;;;11.20;4.00;;;;;;;9.89;51.87;100085.04;109034;1259;2274031;-77
2023/04/26 06:00:39;;;;;;;11.50;4.20;;;;;;;10.20;51.76;100089.05;110513;1255;22426;-79
2023/04/26 06:03:09;;;;;;;13.20;4.20;;;;;;;10.58;51.13;100095.53;110875;1259;21962;-80
2023/04/26 06:05:40;;;;;;;10.50;4.00;;;;;;;10.87;49.74;100089.05;111085;1259;21972;-79
2023/04/26 06:08:10;;;;;;;7.60;2.90;;;;;;;11.15;49.47;100089.08;109947;1266;22575;-77
2023/04/26 06:10:39;;;;;;;10.20;2.80;;;;;;;11.56;49.15;100090.88;110042;1266;22993;-77
2023/04/26 06:13:08;;;;;;;13.20;4.20;;;;;;;11.84;48.35;100087.17;110151;1267;21971;-76
2023/04/26 06:15:38;;;;;;;6.90;3.20;;;;;;;12.10;47.53;100092.90;110143;1266;21931;-78
2023/04/26 06:18:07;;;;;;;14.50;3.50;;;;;;;12.32;47.00;100093.06;110080;1267;21973;-76
2023/04/26 06:20:36;;;;;;;10.60;3.50;;;;;;;12.52;46.09;100093.48;110192;1267;21977;-77
2023/04/26 06:23:07;;;;;;;12.00;4.90;;;;;;;12.54;45.40;100096.55;109851;1267;22356;-75
2023/04/26 06:25:39;;;;;;;11.70;3.50;;;;;;;12.53;44.76;100099.70;110074;1259;23561;-79
2023/04/26 06:28:08;;;;;;;20.40;3.80;;;;;;;12.63;45.06;100099.54;110825;1259;21928;-80
2023/04/26 06:30:38;;;;;;;8.90;3.70;;;;;;;12.77;44.57;100101.46;110787;1259;23841;-78
2023/04/26 06:33:08;;;;;;;8.10;2.60;;;;;;;12.66;43.48;100098.52;110898;1259;21964;-78
2023/04/26 06:35:41;;;;;;;13.30;3.40;;;;;;;12.38;43.18;100097.66;110071;1265;22045;-78
2023/04/26 06:38:14;;;;;;;11.10;2.90;;;;;;;12.04;42.90;100093.73;110174;1265;22863;-77
2023/04/26 06:40:44;;;;;;;9.40;2.50;;;;;;;11.66;43.35;100098.78;110637;1265;21990;-77
2023/04/26 06:43:13;;;;;;;12.80;2.90;;;;;;;11.74;44.35;100095.48;110076;1265;23033;-77
2023/04/26 06:45:53;;;;;;;10.20;3.40;;;;;;;11.83;43.57;100097.14;110527;1265;22307;-77
2023/04/26 06:48:22;;;;;;;12.30;4.00;;;;;;;11.99;43.71;100099.02;109502;1271;21989;-77
2023/04/26 06:50:51;;;;;;;8.50;3.50;;;;;;;12.25;44.03;100100.72;109595;1271;21990;-76
2023/04/26 06:53:20;;;;;;;9.40;3.00;;;;;;;12.38;42.90;100107.08;109531;1265;23836;-76
2023/04/26 06:55:52;;;;;;;11.50;3.20;;;;;;;12.20;42.06;100112.84;110417;1265;21970;-78
2023/04/26 06:58:22;;;;;;;14.70;3.40;;;;;;;12.07;42.90;100114.50;110194;1265;22090;-78
2023/04/26 07:00:51;;;;;;;11.30;3.30;;;;;;;12.10;42.56;100111.55;110108;1264;21974;-78
2023/04/26 07:03:20;;;;;;;13.80;4.40;;;;;;;12.16;42.59;100117.38;110293;1265;21966;-77
2023/04/26 07:05:50;;;;;;;10.10;4.00;;;;;;;12.30;42.39;100113.93;110144;1259;23160;-78
2023/04/26 07:08:19;;;;;;;10.90;3.30;;;;;;;12.36;41.77;100116.09;110823;1259;23686;-77
2023/04/26 07:10:48;;;;;;;9.70;2.70;;;;;;;12.22;41.45;100114.65;110906;1258;21975;-76
2023/04/26 07:13:17;;;;;;;10.50;3.20;;;;;;;12.16;41.78;100119.86;110922;1254;21966;-77
2023/04/26 07:15:47;;;;;;;13.00;3.30;;;;;;;12.07;41.42;100110.48;109902;1265;22031;-78
2023/04/26 07:18:16;;;;;;;6.80;2.30;;;;;;;12.11;41.99;100112.39;110087;1265;21999;-78
2023/04/26 07:20:45;;;;;;;11.50;3.70;;;;;;;12.37;42.30;100107.13;110401;1265;22440;-77
2023/04/26 07:23:15;;;;;;;8.00;3.80;;;;;;;12.75;41.76;100110.98;110275;1265;23515;-79
2023/04/26 07:25:44;;;;;;;9.70;2.60;;;;;;;12.92;40.68;100108.07;110206;1265;22199;-77
2023/04/26 07:28:14;;;;;;;9.80;3.80;;;;;;;12.72;39.58;100108.35;110186;1265;21934;-77
2023/04/26 07:30:43;;;;;;;11.80;3.50;;;;;;;12.61;40.11;100104.54;110116;1265;22045;-77
2023/04/26 07:33:12;;;;;;;7.80;3.30;;;;;;;12.46;39.69;100111.77;109964;1258;23763;-76
2023/04/26 07:35:42;;;;;;;11.10;3.20;;;;;;;12.27;39.95;100113.02;110717;1259;21963;-77
2023/04/26 07:38:18;;;;;;;14.80;4.40;;;;;;;12.23;40.56;100117.93;110723;1258;21969;-78
2023/04/26 07:40:48;;;;;;;13.10;3.30;;;;;;;12.61;41.33;100116.44;110930;1258;22910;-77
2023/04/26 07:43:19;;;;;;;10.00;3.30;;;;;;;12.91;39.70;100114.05;110747;1258;23687;-76
2023/04/26 07:45:48;;;;;;;8.00;3.50;;;;;;;12.92;39.15;100121.85;110758;1258;22167;-76
2023/04/26 07:48:18;;;;;;;7.70;2.50;;;;;;;12.92;39.01;100117.49;110787;1258;21958;-77
2023/04/26 07:50:47;;;;;;;9.40;2.90;;;;;;;12.80;38.30;100120.20;110833;1258;21969;-78
2023/04/26 07:53:16;;;;;;;10.10;3.10;;;;;;;12.68;39.01;100123.94;110747;1258;23003;-79
2023/04/26 07:55:45;;;;;;;12.20;4.60;;;;;;;12.96;39.32;100124.79;110886;1257;23022;-78
2023/04/26 07:58:14;;;;;;;11.60;5.10;;;;;;;13.04;37.97;100131.89;110888;1258;22069;-78
2023/04/26 08:00:43;;;;;;;6.70;3.00;;;;;;;13.27;38.66;100126.54;110723;1259;21973;-78
2023/04/26 08:03:17;;;;;;;13.00;6.00;;;;;;;13.76;38.12;100129.86;110975;1259;21962;-76
2023/04/26 08:05:47;;;;;;;8.40;3.90;;;;;;;14.07;36.81;100126.79;110481;1259;21967;-79
2023/04/26 08:08:17;;;;;;;10.30;2.90;;;;;;;14.34;36.03;100122.30;110742;1259;23700;-77
2023/04/26 08:10:47;;;;;;;9.40;3.00;;;;;;;14.13;34.70;100124.14;110727;1259;23586;-76
2023/04/26 08:13:16;;;;;;;13.50;3.30;;;;;;;13.60;34.62;100128.64;110744;1259;23410;-78
2023/04/26 08:15:46;;;;;;;12.90;2.70;;;;;;;13.23;35.26;100131.96;109811;1267;21985;-78
2023/04/26 08:18:15;;;;;;;6.80;3.10;;;;;;;12.81;35.67;100129.90;109984;1267;21979;-76
2023/04/26 08:20:44;;;;;;;17.80;4.70;;;;;;;12.72;36.62;100132.63;110046;1266;21975;-76
2023/04/26 08:23:14;;;;;;;17.60;4.10;;;;;;;12.78;35.69;100139.86;110111;1266;21937;-76
2023/04/26 08:25:43;;;;;;;6.80;2.50;;;;;;;12.47;35.59;100134.54;110053;1266;21972;-78
2023/04/26 08:28:15;;;;;;;7.10;2.50;;;;;;;12.64;36.78;100131.80;110065;1267;23741;-76
2023/04/26 08:30:44;;;;;;;10.20;3.30;;;;;;;13.13;37.04;100130.01;109389;1272;22115;-75
2023/04/26 08:33:14;;;;;;;8.40;3.40;;;;;;;13.31;35.61;100138.03;109487;1265;21956;-77
2023/04/26 08:35:43;;;;;;;8.50;2.40;;;;;;;13.25;35.20;100140.73;109685;1266;21974;-78
2023/04/26 08:38:12;;;;;;;10.00;2.60;;;;;;;13.30;35.34;100144.21;109990;1262;21995;-77
2023/04/26 08:40:46;;;;;;;11.70;2.70;;;;;;;13.36;35.18;100142.14;110024;1267;23610;-77
2023/04/26 08:43:18;;;;;;;11.50;6.10;;;;;;;13.60;35.48;100136.88;109804;1266;22895;-78
2023/04/26 08:45:47;;;;;;;14.40;5.60;;;;;;;13.88;35.23;100136.21;110010;1266;22992;-76
2023/04/26 08:48:18;;;;;;;7.80;3.50;;;;;;;14.03;35.13;100140.99;109898;1259;23030;-76
2023/04/26 08:50:51;;;;;;;8.60;3.40;;;;;;;14.29;34.37;100136.21;110567;1259;23134;-77
2023/04/26 08:53:20;;;;;;;12.30;4.80;;;;;;;14.35;33.60;100138.16;110696;1259;23680;-79
2023/04/26 08:55:50;;;;;;;16.70;9.30;;;;;;;14.31;32.95;100146.60;110380;1265;21977;-76
2023/04/26 08:58:20;;;;;;;10.20;5.20;;;;;;;13.96;32.53;100147.67;109695;1268;23618;-78
2023/04/26 09:00:50;;;;;;;13.60;7.10;;;;;;;13.82;33.83;100152.14;109836;1268;21968;-77
2023/04/26 09:03:24;;;;;;;9.00;3.20;;;;;;;14.22;34.04;100157.09;109655;1268;22985;-79
2023/04/26 09:05:54;;;;;;;10.10;4.60;;;;;;;14.38;32.45;100149.73;110109;1268;23032;-76
2023/04/26 09:08:24;;;;;;;6.80;2.70;;;;;;;14.21;32.33;100147.17;110053;1268;23130;-77
2023/04/26 09:10:58;;;;;;;7.90;2.40;;;;;;;14.04;32.68;100146.89;110020;1268;22158;-76
2023/04/26 09:13:34;;;;;;;17.00;2.60;;;;;;;13.67;32.46;100142.73;110033;1265;23032;-76
2023/04/26 09:16:11;;;;;;;;;;;;;;;13.26;32.90;100153.84;109949;1264;23668;-76
2023/04/26 09:18:56;;;;;;;6.80;2.10;;;;;;;12.93;33.57;100153.05;110469;1257;21970;-77
2023/04/26 09:21:28;;;;;;;14.10;3.50;;;;;;;12.76;33.98;100150.41;110122;1264;24385;-77
2023/04/26 09:24:03;;;;;;;8.70;3.10;;;;;;;12.67;33.85;100156.10;110412;1265;21950;-76
2023/04/26 09:26:35;;;;;;;9.60;2.80;;;;;;;12.31;34.07;100160.27;110112;1265;23004;-77
2023/04/26 09:29:16;;;;;;;17.60;3.00;;;;;;;12.28;34.87;100159.23;110255;1265;24318;-78
2023/04/26 09:31:49;;;;;;;8.50;2.40;;;;;;;12.51;35.16;100158.30;110301;1265;22038;-75
2023/04/26 09:34:21;;;;;;;8.90;2.70;;;;;;;12.70;34.56;100160.15;110550;1259;21963;-76
2023/04/26 09:36:55;;;;;;;13.80;4.70;;;;;;;12.94;35.05;100161.57;110219;1267;23095;-74
2023/04/26 09:39:33;;;;;;;13.40;2.90;;;;;;;13.55;34.81;100158.77;109507;1271;22832;-74
2023/04/26 09:42:10;;;;;;;6.50;2.40;;;;;;;14.08;33.45;100161.18;109063;1273;22931;-76
2023/04/26 09:44:40;;;;;;;7.30;2.30;;;;;;;14.35;31.98;100161.05;109125;1276;22022;-76
2023/04/26 09:47:13;;;;;;;5.80;1.70;;;;;;;14.11;31.03;100160.98;109002;1276;22074;-76
2023/04/26 09:49:50;;;;;;;5.10;2.20;;;;;;;13.63;31.24;100161.52;109061;1276;23620;-75
2023/04/26 09:52:28;;;;;;;6.40;2.90;;;;;;;13.33;32.41;100161.70;109178;1276;22193;-74
2023/04/26 09:54:59;;;;;;;7.70;3.10;;;;;;;13.39;32.72;100165.02;109185;1276;22365;-76
2023/04/26 09:57:31;;;;;;;11.50;2.50;;;;;;;13.19;32.29;100170.75;109192;1272;22008;-77
2023/04/26 10:00:09;;;;;;;13.90;2.50;;;;;;;13.02;32.52;100173.01;109838;1266;21990;-76
2023/04/26 10:02:54;;;;;;;9.20;2.90;;;;;;;12.88;32.67;100171.47;110717;1258;21922;-75
2023/04/26 10:05:28;;;;;;;6.90;2.40;;;;;;;13.38;33.45;100167.34;111037;1258;24279;-75
2023/04/26 10:08:07;;;;;;;6.70;2.20;;;;;;;14.28;32.44;100166.52;110909;1258;21972;-76
2023/04/26 10:10:42;;;;;;;10.60;3.60;;;;;;;14.98;31.42;100170.42;110281;1265;22178;-75
2023/04/26 10:13:18;;;;;;;10.20;5.50;;;;;;;15.82;30.92;100171.85;110026;1264;23802;-77
2023/04/26 10:15:50;;;;;;;7.60;2.40;;;;;;;16.62;29.45;100169.52;110378;1265;21970;-75
2023/04/26 10:18:25;;;;;;;5.10;2.30;;;;;;;17.08;27.89;100168.98;110307;1265;21975;-76
2023/04/26 10:21:06;;;;;;;5.30;2.50;;;;;;;16.93;26.98;100172.64;110071;1269;21985;-75
2023/04/26 10:23:37;;;;;;;12.30;2.90;;;;;;;16.08;27.08;100168.83;109921;1269;21972;-77
2023/04/26 10:26:52;;;;;;;8.50;2.50;;;;;;;15.89;28.31;100173.02;109813;1269;22014;-76
2023/04/26 10:29:54;;;;;;;9.90;2.60;;;;;;;16.26;28.21;100169.63;109921;1269;23615;-78
2023/04/26 10:32:32;;;;;;;7.10;2.40;;;;;;;16.54;28.15;100168.89;109308;1274;21998;-75
2023/04/26 10:35:16;;;;;;;12.90;3.40;;;;;;;16.39;27.32;100165.45;109467;1269;21980;-75
2023/04/26 10:37:58;;;;;;;9.90;2.70;;;;;;;15.55;27.23;100168.20;109911;1269;21973;-74
2023/04/26 10:40:45;;;;;;;5.20;2.10;;;;;;;14.64;27.91;100172.02;110182;1268;22010;-77
2023/04/26 10:43:16;;;;;;;6.40;2.20;;;;;;;13.79;29.23;100179.20;109664;1269;22016;-74
2023/04/26 10:45:53;;;;;;;8.70;2.70;;;;;;;13.52;30.03;100176.44;110242;1263;23040;-75
2023/04/26 10:48:36;;;;;;;9.20;2.60;;;;;;;13.29;30.06;100184.61;110410;1263;21989;-76
2023/04/26 10:51:11;;;;;;;8.50;2.30;;;;;;;12.84;30.55;100181.77;109868;1269;23591;-76
2023/04/26 10:53:45;;;;;;;6.00;2.50;;;;;;;12.49;31.23;100181.56;109144;1274;22728;-75
2023/04/26 10:56:34;;;;;;;9.50;2.40;;;;;;;12.14;31.56;100173.31;108932;1275;22043;-77
2023/04/26 10:59:26;;;;;;;5.40;1.90;;;;;;;11.88;32.35;100172.90;109178;1276;21967;-75
2023/04/26 11:02:46;;;;;;;5.20;2.10;;;;;;;11.80;32.55;100173.27;109113;1275;22087;-76
2023/04/26 11:05:41;;;;;;;5.60;2.20;;;;;;;11.71;32.95;100174.89;109125;1275;21981;-75
2023/04/26 11:08:31;;;;;;;4.90;1.80;;;;;;;11.82;33.30;100174.79;109218;1274;21978;-76
2023/04/26 11:11:01;;;;;;;7.70;2.60;;;;;;;11.74;32.75;100176.86;109864;1263;22357;-75
2023/04/26 11:13:42;;;;;;;6.40;2.50;;;;;;;11.51;32.39;100176.86;110623;1258;23690;-75
2023/04/26 11:16:17;;;;;;;3.80;1.90;;;;;;;11.23;32.68;100180.15;110227;1265;23707;-76
2023/04/26 11:18:53;;;;;;;4.90;2.60;;;;;;;10.99;33.10;100179.44;110207;1265;21977;-76
2023/04/26 11:21:27;;;;;;;7.00;2.80;;;;;;;10.76;33.69;100179.70;110407;1265;22048;-76
2023/04/26 11:24:00;;;;;;;8.20;3.00;;;;;;;10.69;34.05;100181.04;109402;1271;23709;-76
2023/04/26 11:26:37;;;;;;;6.90;2.40;;;;;;;10.69;34.19;100185.20;109686;1271;23715;-75
2023/04/26 11:29:18;;;;;;;9.00;2.30;;;;;;;10.61;33.82;100191.79;109423;1272;21979;-75
2023/04/26 11:31:57;;;;;;;7.20;2.30;;;;;;;10.45;33.88;100188.61;109411;1272;22066;-77
2023/04/26 11:34:38;;;;;;;6.80;3.00;;;;;;;10.42;34.24;100185.75;109866;1263;22503;-74
2023/04/26 11:37:10;;;;;;;7.90;2.10;;;;;;;10.42;34.48;100183.16;110198;1263;24377;-75
2023/04/26 11:39:44;;;;;;;8.40;3.00;;;;;;;10.51;34.88;100191.16;109563;1266;21967;-74
2023/04/26 11:42:25;;;;;;;4.70;1.90;;;;;;;10.57;34.71;100192.28;110096;1263;23634;-75
2023/04/26 11:45:00;;;;;;;10.10;4.50;;;;;;;10.53;34.96;100191.05;110401;1263;21966;-74
2023/04/26 11:47:31;;;;;;;7.30;2.90;;;;;;;10.65;35.13;100191.64;110381;1263;22984;-75